createdAt,value
2023-04-02T00:01:53.971Z,96640.50
2023-04-02T00:04:24.344Z,96643.28
2023-04-02T00:06:55.704Z,96639.47
2023-04-02T00:09:39.013Z,96636.31
2023-04-02T00:12:17.890Z,96638.22
2023-04-02T00:14:54.098Z,96642.88
2023-04-02T00:17:25.892Z,96650.78
2023-04-02T00:19:59.324Z,96634.09
2023-04-02T00:22:31.734Z,96635.03
2023-04-02T00:25:03.940Z,96636.00
2023-04-02T00:27:33.093Z,96630.16
2023-04-02T00:30:04.374Z,96620.63
2023-04-02T00:32:36.234Z,96629.91
2023-04-02T00:35:06.145Z,96633.72
2023-04-02T00:37:39.280Z,96627.91
2023-04-02T00:40:16.853Z,96625.78
2023-04-02T00:42:46.675Z,96628.81
2023-04-02T00:45:23.840Z,96627.19
2023-04-02T00:47:52.625Z,96635.00
2023-04-02T00:50:29.060Z,96638.91
2023-04-02T00:53:00.040Z,96640.78
2023-04-02T00:55:36.860Z,96642.47
2023-04-02T00:58:06.318Z,96641.84
2023-04-02T01:00:38.159Z,96628.09
2023-04-02T01:03:30.120Z,96629.38
2023-04-02T01:06:04.829Z,96612.28
2023-04-02T01:08:49.359Z,96621.28
2023-04-02T01:11:30.949Z,96613.34
2023-04-02T01:14:08.380Z,96627.69
2023-04-02T01:16:50.503Z,96623.91
2023-04-02T01:19:49.213Z,96618.00
2023-04-02T01:22:24.389Z,96624.56
2023-04-02T01:24:52.780Z,96628.78
2023-04-02T01:27:26.241Z,96630.66
2023-04-02T01:29:58.023Z,96631.22
2023-04-02T01:32:29.860Z,96626.06
2023-04-02T01:34:59.481Z,96619.94
2023-04-02T01:37:39.282Z,96625.13
2023-04-02T01:40:17.377Z,96627.94
2023-04-02T01:42:53.450Z,96626.91
2023-04-02T01:45:24.781Z,96626.06
2023-04-02T01:47:53.828Z,96628.38
2023-04-02T01:50:31.702Z,96617.72
2023-04-02T01:53:04.646Z,96634.28
2023-04-02T01:55:40.450Z,96640.34
2023-04-02T01:58:12.052Z,96642.44
2023-04-02T02:00:47.354Z,96638.59
2023-04-02T02:03:17.523Z,96652.28
2023-04-02T02:05:46.505Z,96641.50
2023-04-02T02:08:32.839Z,96637.41
2023-04-02T02:11:01.668Z,96650.47
2023-04-02T02:13:30.008Z,96656.41
2023-04-02T02:16:01.090Z,96663.84
2023-04-02T02:18:30.334Z,96643.16
2023-04-02T02:21:01.043Z,96658.59
2023-04-02T02:23:31.083Z,96664.25
2023-04-02T02:26:00.120Z,96649.38
2023-04-02T02:28:30.863Z,96653.81
2023-04-02T02:31:04.233Z,96666.66
2023-04-02T02:33:38.945Z,96649.66
2023-04-02T02:36:17.287Z,96658.59
2023-04-02T02:38:54.290Z,96647.50
2023-04-02T02:41:43.847Z,96657.75
2023-04-02T02:44:19.150Z,96651.25
2023-04-02T02:46:53.392Z,96665.50
2023-04-02T02:49:28.517Z,96667.56
2023-04-02T02:52:02.463Z,96667.56
2023-04-02T02:54:45.272Z,96658.34
2023-04-02T02:57:19.536Z,96670.56
2023-04-02T02:59:49.762Z,96658.53
2023-04-02T03:02:20.883Z,96673.78
2023-04-02T03:04:53.207Z,96676.22
2023-04-02T03:07:26.757Z,96660.41
2023-04-02T03:10:06.180Z,96679.41
2023-04-02T03:12:46.729Z,96671.69
2023-04-02T03:15:22.847Z,96674.13
2023-04-02T03:17:59.150Z,96681.47
2023-04-02T03:20:36.155Z,96666.00
2023-04-02T03:23:14.016Z,96688.22
2023-04-02T03:25:45.857Z,96687.56
2023-04-02T03:28:18.287Z,96689.25
2023-04-02T03:30:51.886Z,96685.03
2023-04-02T03:33:27.363Z,96685.97
2023-04-02T03:36:01.505Z,96689.53
2023-04-02T03:38:33.956Z,96698.25
2023-04-02T03:41:07.022Z,96694.00
2023-04-02T03:43:41.862Z,96702.50
2023-04-02T03:46:23.858Z,96717.78
2023-04-02T03:48:57.207Z,96691.84
2023-04-02T03:51:32.114Z,96717.69
2023-04-02T03:54:03.688Z,96715.41
2023-04-02T03:56:39.994Z,96705.09
2023-04-02T03:59:18.283Z,96704.41
2023-04-02T04:01:54.811Z,96710.69
2023-04-02T04:04:28.997Z,96705.78
2023-04-02T04:06:59.966Z,96702.22
2023-04-02T04:09:33.103Z,96717.81
2023-04-02T04:12:10.890Z,96719.81
2023-04-02T04:14:45.366Z,96722.81
2023-04-02T04:17:24.847Z,96715.44
2023-04-02T04:20:08.277Z,96732.56
2023-04-02T04:22:37.994Z,96722.31
2023-04-02T04:25:30.011Z,96746.38
2023-04-02T04:28:11.761Z,96748.69
2023-04-02T04:30:51.184Z,96742.06
2023-04-02T04:33:25.823Z,96744.59
2023-04-02T04:36:02.268Z,96745.81
2023-04-02T04:38:39.298Z,96752.56
2023-04-02T04:41:16.504Z,96746.31
2023-04-02T04:43:51.408Z,96738.75
2023-04-02T04:46:24.196Z,96752.50
2023-04-02T04:48:59.257Z,96765.31
2023-04-02T04:51:35.676Z,96753.94
2023-04-02T04:54:04.261Z,96761.59
2023-04-02T04:56:36.305Z,96755.38
2023-04-02T04:59:19.197Z,96747.84
2023-04-02T05:01:53.727Z,96757.06
2023-04-02T05:04:30.299Z,96760.19
2023-04-02T05:07:06.407Z,96753.44
2023-04-02T05:09:40.316Z,96765.94
2023-04-02T05:12:19.104Z,96770.03
2023-04-02T05:14:55.134Z,96766.56
2023-04-02T05:17:30.815Z,96775.03
2023-04-02T05:20:08.320Z,96765.28
2023-04-02T05:22:47.422Z,96774.41
2023-04-02T05:25:23.608Z,96792.41
2023-04-02T05:27:58.914Z,96786.78
2023-04-02T05:30:52.911Z,96790.16
2023-04-02T05:33:25.939Z,96788.47
2023-04-02T05:36:00.711Z,96793.19
2023-04-02T05:38:34.749Z,96800.38
2023-04-02T05:41:06.280Z,96796.22
2023-04-02T05:43:38.608Z,96789.19
2023-04-02T05:46:18.314Z,96791.38
2023-04-02T05:48:53.141Z,96789.66
2023-04-02T05:51:25.829Z,96800.97
2023-04-02T05:53:59.557Z,96803.22
2023-04-02T05:56:34.061Z,96795.53
2023-04-02T05:59:12.398Z,96800.59
2023-04-02T06:01:45.731Z,96802.59
2023-04-02T06:04:31.571Z,96809.66
2023-04-02T06:07:06.419Z,96806.09
2023-04-02T06:09:45.261Z,96801.75
2023-04-02T06:12:29.862Z,96806.09
2023-04-02T06:14:59.662Z,96819.84
2023-04-02T06:17:31.609Z,96800.41
2023-04-02T06:20:05.039Z,96812.81
2023-04-02T06:22:37.669Z,96825.53
2023-04-02T06:25:19.539Z,96819.59
2023-04-02T06:27:51.781Z,96809.34
2023-04-02T06:30:26.057Z,96827.63
2023-04-02T06:32:54.932Z,96834.78
2023-04-02T06:35:23.778Z,96841.66
2023-04-02T06:38:05.810Z,96834.66
2023-04-02T06:40:43.412Z,96824.84
2023-04-02T06:43:52.129Z,96847.19
2023-04-02T06:46:33.952Z,96848.28
2023-04-02T06:49:18.996Z,96846.81
2023-04-02T06:51:51.999Z,96850.00
2023-04-02T06:54:21.281Z,96841.34
2023-04-02T06:56:57.663Z,96851.72
2023-04-02T06:59:30.652Z,96854.78
2023-04-02T07:02:04.579Z,96858.91
2023-04-02T07:04:33.424Z,96857.00
2023-04-02T07:07:01.864Z,96865.47
2023-04-02T07:09:33.833Z,96873.28
2023-04-02T07:12:12.924Z,96852.94
2023-04-02T07:14:41.907Z,96870.09
2023-04-02T07:17:17.921Z,96874.06
2023-04-02T07:19:49.813Z,96852.47
2023-04-02T07:22:21.769Z,96864.72
2023-04-02T07:24:54.508Z,96864.88
2023-04-02T07:27:24.629Z,96864.16
2023-04-02T07:29:53.265Z,96875.66
2023-04-02T07:32:21.784Z,96875.25
2023-04-02T07:34:50.207Z,96886.75
2023-04-02T07:37:18.532Z,96885.13
2023-04-02T07:39:47.206Z,96873.75
2023-04-02T07:42:15.787Z,96889.69
2023-04-02T07:44:45.552Z,96879.00
2023-04-02T07:47:13.984Z,96888.34
2023-04-02T07:49:42.322Z,96893.28
2023-04-02T07:52:10.715Z,96890.06
2023-04-02T07:54:39.987Z,96889.19
2023-04-02T07:57:08.433Z,96899.38
2023-04-02T07:59:36.816Z,96885.28
2023-04-02T08:02:06.582Z,96895.31
2023-04-02T08:04:35.028Z,96902.06
2023-04-02T08:07:03.941Z,96892.31
2023-04-02T08:09:32.255Z,96901.50
2023-04-02T08:12:00.722Z,96889.97
2023-04-02T08:14:29.258Z,96910.00
2023-04-02T08:16:57.703Z,96899.25
2023-04-02T08:19:28.366Z,96900.59
2023-04-02T08:21:56.923Z,96900.09
2023-04-02T08:24:25.352Z,96892.50
2023-04-02T08:26:54.413Z,96900.72
2023-04-02T08:29:23.065Z,96893.44
2023-04-02T08:31:51.436Z,96889.94
2023-04-02T08:34:19.911Z,96900.94
2023-04-02T08:36:49.721Z,96901.59
2023-04-02T08:39:18.176Z,96906.50
2023-04-02T08:41:53.114Z,96916.91
2023-04-02T08:44:38.251Z,96903.53
2023-04-02T08:47:08.741Z,96899.28
2023-04-02T08:49:41.561Z,96893.97
2023-04-02T08:52:22.902Z,96901.91
2023-04-02T08:54:53.640Z,96903.94
2023-04-02T08:57:32.139Z,96909.13
2023-04-02T09:00:11.087Z,96905.50
2023-04-02T09:02:43.462Z,96889.75
2023-04-02T09:05:20.044Z,96907.38
2023-04-02T09:07:52.537Z,96913.25
2023-04-02T09:10:22.406Z,96910.69
2023-04-02T09:12:54.122Z,96903.75
2023-04-02T09:15:30.953Z,96901.72
2023-04-02T09:18:05.527Z,96903.91
2023-04-02T09:20:33.988Z,96909.72
2023-04-02T09:23:03.821Z,96911.97
2023-04-02T09:25:33.587Z,96913.53
2023-04-02T09:28:04.295Z,96916.06
2023-04-02T09:30:44.882Z,96912.47
2023-04-02T09:33:13.242Z,96903.09
2023-04-02T09:35:57.880Z,96917.75
2023-04-02T09:38:31.664Z,96920.88
2023-04-02T09:41:02.500Z,96915.41
2023-04-02T09:43:32.284Z,96919.94
2023-04-02T09:46:03.328Z,96912.94
2023-04-02T09:48:35.504Z,96914.78
2023-04-02T09:51:12.926Z,96927.31
2023-04-02T09:53:43.904Z,96924.03
2023-04-02T09:56:18.166Z,96913.19
2023-04-02T09:59:02.760Z,96924.94
2023-04-02T10:01:34.816Z,96926.28
2023-04-02T10:04:05.265Z,96926.97
2023-04-02T10:06:35.397Z,96923.94
2023-04-02T10:09:30.614Z,96918.66
2023-04-02T10:12:01.596Z,96913.34
2023-04-02T10:14:34.697Z,96919.91
2023-04-02T10:17:09.736Z,96912.81
2023-04-02T10:19:42.224Z,96898.03
2023-04-02T10:22:15.046Z,96902.75
2023-04-02T10:24:45.467Z,96902.97
2023-04-02T10:27:27.882Z,96899.94
2023-04-02T10:30:10.708Z,96900.72
2023-04-02T10:32:46.091Z,96893.00
2023-04-02T10:35:22.739Z,96897.78
2023-04-02T10:38:20.653Z,96895.22
2023-04-02T10:40:59.401Z,96895.50
2023-04-02T10:43:50.934Z,96887.81
2023-04-02T10:46:25.636Z,96892.00
2023-04-02T10:49:03.805Z,96895.50
2023-04-02T10:51:40.602Z,96892.09
2023-04-02T10:54:23.850Z,96890.50
2023-04-02T10:56:55.178Z,96898.13
2023-04-02T10:59:27.446Z,96902.50
2023-04-02T11:01:58.476Z,96902.59
2023-04-02T11:04:31.219Z,96902.66
2023-04-02T11:07:13.279Z,96907.09
2023-04-02T11:09:45.540Z,96900.97
2023-04-02T11:12:24.645Z,96892.44
2023-04-02T11:14:55.525Z,96907.22
2023-04-02T11:17:25.552Z,96903.06
2023-04-02T11:19:54.150Z,96909.47
2023-04-02T11:22:24.078Z,96907.88
2023-04-02T11:24:53.677Z,96907.88
2023-04-02T11:27:29.466Z,96905.00
2023-04-02T11:30:06.813Z,96910.47
2023-04-02T11:32:39.550Z,96915.53
2023-04-02T11:35:37.621Z,96907.81
2023-04-02T11:38:52.209Z,96910.81
2023-04-02T11:41:59.582Z,96915.97
2023-04-02T11:44:29.454Z,96905.38
2023-04-02T11:47:19.735Z,96904.41
2023-04-02T11:50:07.636Z,96905.38
2023-04-02T11:52:51.253Z,96902.56
2023-04-02T11:55:25.358Z,96904.69
2023-04-02T11:58:32.678Z,96899.03
2023-04-02T12:01:38.609Z,96899.22
2023-04-02T12:04:33.986Z,96902.41
2023-04-02T12:07:26.804Z,96902.03
2023-04-02T12:09:58.605Z,96897.19
2023-04-02T12:12:30.446Z,96898.97
2023-04-02T12:14:59.934Z,96903.41
2023-04-02T12:17:34.345Z,96900.38
2023-04-02T12:20:09.919Z,96906.03
2023-04-02T12:22:41.665Z,96911.94
2023-04-02T12:25:27.873Z,96908.72
2023-04-02T12:28:18.091Z,96901.69
2023-04-02T12:30:48.206Z,96902.91
2023-04-02T12:33:30.659Z,96907.06
2023-04-02T12:36:01.057Z,96908.00
2023-04-02T12:38:31.337Z,96903.75
2023-04-02T12:41:01.566Z,96903.19
2023-04-02T12:43:32.775Z,96897.88
2023-04-02T12:46:04.002Z,96905.09
2023-04-02T12:48:34.902Z,96896.16
2023-04-02T12:51:05.420Z,96898.78
2023-04-02T12:53:37.404Z,96904.47
2023-04-02T12:56:08.332Z,96901.19
2023-04-02T12:58:38.558Z,96893.34
2023-04-02T13:01:18.778Z,96899.13
2023-04-02T13:04:03.515Z,96895.13
2023-04-02T13:06:32.225Z,96909.59
2023-04-02T13:09:02.633Z,96903.13
2023-04-02T13:11:41.234Z,96913.28
2023-04-02T13:14:19.937Z,96912.56
2023-04-02T13:16:49.014Z,96916.41
2023-04-02T13:19:30.874Z,96910.78
2023-04-02T13:22:01.297Z,96913.31
2023-04-02T13:24:31.999Z,96930.22
2023-04-02T13:27:02.152Z,96937.66
2023-04-02T13:29:34.732Z,96947.09
2023-04-02T13:32:05.660Z,96957.81
2023-04-02T13:34:35.467Z,96958.16
2023-04-02T13:37:03.770Z,96959.94
2023-04-02T13:39:32.166Z,96965.56
2023-04-02T13:42:03.317Z,96947.28
2023-04-02T13:44:33.968Z,96957.25
2023-04-02T13:47:02.752Z,96952.78
2023-04-02T13:49:34.260Z,96950.72
2023-04-02T13:52:05.475Z,96945.00
2023-04-02T13:54:41.115Z,96952.22
2023-04-02T13:57:10.147Z,96948.91
2023-04-02T13:59:39.095Z,96942.03
2023-04-02T14:02:12.067Z,96942.75
2023-04-02T14:04:45.551Z,96936.72
2023-04-02T14:07:27.100Z,96944.09
2023-04-02T14:10:07.841Z,96942.78
2023-04-02T14:12:50.315Z,96952.16
2023-04-02T14:15:28.710Z,96947.16
2023-04-02T14:18:25.631Z,96952.81
2023-04-02T14:21:06.180Z,96942.59
2023-04-02T14:23:50.146Z,96941.72
2023-04-02T14:26:28.076Z,96952.16
2023-04-02T14:29:02.006Z,96947.09
2023-04-02T14:31:36.349Z,96953.84
2023-04-02T14:34:16.063Z,96946.31
2023-04-02T14:36:57.735Z,96955.38
2023-04-02T14:39:40.754Z,96956.72
2023-04-02T14:42:17.673Z,96950.44
2023-04-02T14:44:53.861Z,96951.31
2023-04-02T14:47:28.305Z,96954.63
2023-04-02T14:50:03.968Z,96958.50
2023-04-02T14:52:37.303Z,96955.91
2023-04-02T14:55:11.799Z,96964.00
2023-04-02T14:57:49.072Z,96955.59
2023-04-02T15:00:30.538Z,96967.53
2023-04-02T15:03:06.774Z,96966.81
2023-04-02T15:05:43.588Z,96969.88
2023-04-02T15:08:22.049Z,96973.47
2023-04-02T15:11:03.593Z,96977.06
2023-04-02T15:13:40.076Z,96974.69
2023-04-02T15:16:15.018Z,96987.28
2023-04-02T15:18:43.523Z,96982.03
2023-04-02T15:21:49.709Z,96978.16
2023-04-02T15:24:28.965Z,96991.44
2023-04-02T15:27:18.083Z,96986.97
2023-04-02T15:29:59.057Z,96985.88
2023-04-02T15:32:38.126Z,96991.94
2023-04-02T15:35:28.250Z,96988.41
2023-04-02T15:38:07.174Z,96989.69
2023-04-02T15:40:55.440Z,96994.44
2023-04-02T15:43:31.964Z,97000.53
2023-04-02T15:46:21.044Z,96996.75
2023-04-02T15:49:23.896Z,97007.31
2023-04-02T15:52:06.282Z,97007.72
2023-04-02T15:55:03.346Z,97009.53
2023-04-02T15:58:12.158Z,97013.75
2023-04-02T16:00:43.885Z,97013.31
2023-04-02T16:03:30.025Z,97026.97
2023-04-02T16:06:18.287Z,97022.69
2023-04-02T16:09:02.454Z,97029.72
2023-04-02T16:11:32.319Z,97028.28
2023-04-02T16:14:18.064Z,97043.72
2023-04-02T16:16:50.605Z,97040.84
2023-04-02T16:19:31.010Z,97040.31
2023-04-02T16:22:07.394Z,97054.13
2023-04-02T16:24:37.336Z,97053.16
2023-04-02T16:27:20.180Z,97057.59
2023-04-02T16:30:03.290Z,97066.19
2023-04-02T16:32:51.519Z,97069.03
2023-04-02T16:35:42.775Z,97079.50
2023-04-02T16:38:24.046Z,97081.22
2023-04-02T16:41:08.408Z,97079.31
2023-04-02T16:43:47.770Z,97087.00
2023-04-02T16:49:11.667Z,97087.44
2023-04-02T16:51:48.080Z,97095.78
2023-04-02T16:54:25.216Z,97095.28
2023-04-02T16:57:10.475Z,97104.53
2023-04-02T16:59:51.365Z,97107.41
2023-04-02T17:02:33.427Z,97111.34
2023-04-02T17:05:18.499Z,97107.63
2023-04-02T17:07:53.715Z,97122.25
2023-04-02T17:10:31.157Z,97128.19
2023-04-02T17:13:14.731Z,97131.47
2023-04-02T17:15:53.583Z,97134.09
2023-04-02T17:18:27.693Z,97140.16
2023-04-02T17:21:04.082Z,97133.03
2023-04-02T17:23:46.248Z,97149.09
2023-04-02T17:26:28.880Z,97149.44
2023-04-02T17:29:01.522Z,97151.97
2023-04-02T17:31:37.861Z,97156.34
2023-04-02T17:34:16.272Z,97165.72
2023-04-02T17:36:53.684Z,97173.00
2023-04-02T17:39:32.715Z,97165.50
2023-04-02T17:42:11.895Z,97177.09
2023-04-02T17:44:56.332Z,97175.00
2023-04-02T17:47:35.694Z,97196.47
2023-04-02T17:50:38.203Z,97198.50
2023-04-02T17:53:21.245Z,97193.91
2023-04-02T17:56:01.666Z,97207.41
2023-04-02T17:58:51.111Z,97210.03
2023-04-02T18:01:30.422Z,97215.00
2023-04-02T18:04:12.253Z,97229.34
2023-04-02T18:06:52.133Z,97226.00
2023-04-02T18:09:39.513Z,97231.28
2023-04-02T18:12:24.741Z,97239.94
2023-04-02T18:15:06.641Z,97246.22
2023-04-02T18:17:47.392Z,97248.13
2023-04-02T18:20:32.931Z,97251.75
2023-04-02T18:23:13.860Z,97252.88
2023-04-02T18:26:06.456Z,97258.06
2023-04-02T18:28:48.004Z,97271.88
2023-04-02T18:31:26.798Z,97276.25
2023-04-02T18:34:20.356Z,97278.59
2023-04-02T18:37:02.997Z,97289.63
2023-04-02T18:39:47.144Z,97293.06
2023-04-02T18:42:25.873Z,97298.97
2023-04-02T18:45:06.131Z,97307.91
2023-04-02T18:47:43.162Z,97312.69
2023-04-02T18:50:19.720Z,97313.88
2023-04-02T18:52:53.334Z,97319.03
2023-04-02T18:55:30.030Z,97319.72
2023-04-02T18:58:06.331Z,97320.00
2023-04-02T19:00:41.448Z,97323.84
2023-04-02T19:03:21.369Z,97328.59
2023-04-02T19:05:56.254Z,97337.53
2023-04-02T19:08:33.129Z,97337.09
2023-04-02T19:11:12.917Z,97347.06
2023-04-02T19:13:50.179Z,97356.31
2023-04-02T19:16:52.840Z,97350.56
2023-04-02T19:19:24.469Z,97358.19
2023-04-02T19:22:10.982Z,97354.88
2023-04-02T19:24:58.561Z,97359.00
2023-04-02T19:27:39.478Z,97365.25
2023-04-02T19:30:32.819Z,97373.41
2023-04-02T19:33:14.556Z,97362.06
2023-04-02T19:35:50.327Z,97377.22
2023-04-02T19:38:36.122Z,97381.66
2023-04-02T19:41:15.490Z,97383.72
2023-04-02T19:43:47.832Z,97385.72
2023-04-02T19:46:19.923Z,97390.81
2023-04-02T19:48:58.597Z,97392.31
2023-04-02T19:51:38.294Z,97398.22
2023-04-02T19:54:09.271Z,97399.25
2023-04-02T19:56:41.104Z,97402.41
2023-04-02T20:01:47.166Z,97407.41
2023-04-02T20:04:17.592Z,97411.22
2023-04-02T20:06:49.599Z,97418.41
2023-04-02T20:09:19.731Z,97420.69
2023-04-02T20:11:50.098Z,97421.63
2023-04-02T20:14:24.538Z,97425.53
2023-04-02T20:16:57.199Z,97425.25
2023-04-02T20:19:27.521Z,97429.06
2023-04-02T20:21:57.957Z,97444.00
2023-04-02T20:24:28.949Z,97447.03
2023-04-02T20:26:57.894Z,97441.81
2023-04-02T20:29:30.865Z,97458.34
2023-04-02T20:32:00.006Z,97460.91
2023-04-02T20:34:29.544Z,97470.63
2023-04-02T20:36:58.872Z,97472.53
2023-04-02T20:39:29.207Z,97472.72
2023-04-02T20:42:02.869Z,97481.91
2023-04-02T20:44:33.445Z,97483.69
2023-04-02T20:47:02.216Z,97486.97
2023-04-02T20:49:31.024Z,97485.47
2023-04-02T20:51:59.439Z,97489.69
2023-04-02T20:54:28.142Z,97495.00
2023-04-02T20:56:57.012Z,97499.47
2023-04-02T20:59:26.204Z,97506.47
2023-04-02T21:01:56.360Z,97509.41
2023-04-02T21:04:24.841Z,97511.19
2023-04-02T21:06:57.123Z,97518.44
2023-04-02T21:09:25.563Z,97515.69
2023-04-02T21:11:53.862Z,97516.63
2023-04-02T21:14:22.146Z,97523.44
2023-04-02T21:16:50.479Z,97523.06
2023-04-02T21:19:20.184Z,97515.47
2023-04-02T21:21:48.434Z,97511.69
2023-04-02T21:24:17.131Z,97517.97
2023-04-02T21:26:46.575Z,97525.09
2023-04-02T21:29:14.880Z,97531.31
2023-04-02T21:31:43.627Z,97523.94
2023-04-02T21:34:15.717Z,97530.84
2023-04-02T21:36:46.977Z,97539.06
2023-04-02T21:39:19.194Z,97540.75
2023-04-02T21:41:50.097Z,97545.72
2023-04-02T21:44:22.034Z,97549.44
2023-04-02T21:46:52.973Z,97549.44
2023-04-02T21:49:23.290Z,97550.28
2023-04-02T21:51:53.481Z,97555.66
2023-04-02T21:54:22.033Z,97558.59
2023-04-02T21:56:50.538Z,97560.31
2023-04-02T21:59:19.798Z,97558.06
2023-04-02T22:01:49.997Z,97566.84
2023-04-02T22:04:20.190Z,97568.00
2023-04-02T22:06:48.810Z,97575.53
2023-04-02T22:09:21.251Z,97570.41
2023-04-02T22:11:51.341Z,97580.09
2023-04-02T22:14:19.734Z,97585.69
2023-04-02T22:16:48.259Z,97584.13
2023-04-02T22:19:17.900Z,97594.75
2023-04-02T22:21:47.695Z,97601.13
2023-04-02T22:24:22.079Z,97608.31
2023-04-02T22:26:50.711Z,97610.25
2023-04-02T22:29:19.030Z,97612.03
2023-04-02T22:31:47.599Z,97617.38
2023-04-02T22:34:16.025Z,97612.25
2023-04-02T22:36:44.297Z,97621.63
2023-04-02T22:39:13.471Z,97618.78
2023-04-02T22:41:43.477Z,97618.16
2023-04-02T22:44:15.538Z,97618.16
2023-04-02T22:46:43.925Z,97626.22
2023-04-02T22:49:12.519Z,97623.59
2023-04-02T22:51:40.997Z,97624.69
2023-04-02T22:54:09.275Z,97630.94
2023-04-02T22:56:37.717Z,97634.72
2023-04-02T22:59:07.415Z,97628.81
2023-04-02T23:01:37.066Z,97627.38
2023-04-02T23:04:06.117Z,97626.63
2023-04-02T23:06:34.539Z,97625.19
2023-04-02T23:09:02.812Z,97625.47
2023-04-02T23:11:30.972Z,97629.03
2023-04-02T23:13:59.533Z,97624.97
2023-04-02T23:16:30.605Z,97626.47
2023-04-02T23:18:58.933Z,97631.41
2023-04-02T23:21:28.026Z,97622.69
2023-04-02T23:23:56.974Z,97631.81
2023-04-02T23:26:29.444Z,97623.31
2023-04-02T23:28:58.422Z,97618.91
2023-04-02T23:31:28.466Z,97628.78
2023-04-02T23:33:56.786Z,97623.94
2023-04-02T23:36:26.781Z,97629.34
2023-04-02T23:38:56.529Z,97638.44
2023-04-02T23:41:26.962Z,97645.69
2023-04-02T23:43:56.339Z,97641.34
2023-04-02T23:46:25.727Z,97644.25
2023-04-02T23:48:56.376Z,97645.28
2023-04-02T23:51:25.619Z,97640.75
2023-04-02T23:53:55.452Z,97649.72
2023-04-02T23:56:24.555Z,97652.91
2023-04-02T23:58:53.242Z,97646.94
